createdAt,value
2022-10-19T00:00:35.859Z,10.40
2022-10-19T00:05:38.654Z,10.55
2022-10-19T00:10:41.836Z,10.27
2022-10-19T00:15:45.618Z,10.87
2022-10-19T00:20:48.448Z,11.75
2022-10-19T00:25:57.877Z,10.43
2022-10-19T00:31:05.729Z,12.55
2022-10-19T00:36:18.402Z,12.43
2022-10-19T00:41:22.457Z,12.03
2022-10-19T00:46:26.846Z,10.18
2022-10-19T00:51:31.490Z,10.27
2022-10-19T00:56:35.238Z,8.75
2022-10-19T01:01:37.966Z,10.45
2022-10-19T01:06:41.911Z,10.67
2022-10-19T01:11:58.256Z,12.63
2022-10-19T01:17:07.848Z,12.57
2022-10-19T01:22:43.931Z,18.20
2022-10-19T01:28:04.822Z,12.27
2022-10-19T01:33:36.216Z,13.70
2022-10-19T01:38:52.021Z,10.63
2022-10-19T01:44:01.053Z,10.27
2022-10-19T01:49:16.462Z,10.90
2022-10-19T01:54:21.160Z,12.23
2022-10-19T01:59:24.262Z,8.90
2022-10-19T02:04:27.383Z,10.73
2022-10-19T02:09:30.425Z,11.03
2022-10-19T02:14:39.878Z,11.45
2022-10-19T02:19:43.632Z,9.20
2022-10-19T02:24:46.328Z,9.73
2022-10-19T02:29:49.038Z,9.10
2022-10-19T02:34:51.822Z,9.67
2022-10-19T02:39:54.581Z,10.45
2022-10-19T02:45:02.039Z,11.38
2022-10-19T02:50:09.302Z,11.53
2022-10-19T02:55:12.041Z,12.25
2022-10-19T03:00:15.123Z,14.63
2022-10-19T03:05:18.112Z,14.55
2022-10-19T03:10:21.089Z,16.02
2022-10-19T03:15:27.369Z,13.67
2022-10-19T03:20:30.088Z,17.08
2022-10-19T03:25:32.848Z,17.53
2022-10-19T03:30:35.551Z,17.98
2022-10-19T03:35:38.254Z,17.65
2022-10-19T03:40:41.290Z,18.93
2022-10-19T03:45:47.193Z,20.05
2022-10-19T03:50:58.162Z,17.07
2022-10-19T03:56:06.459Z,17.30
2022-10-19T04:01:19.593Z,23.45
2022-10-19T04:06:26.287Z,17.40
2022-10-19T04:11:31.131Z,20.98
2022-10-19T04:16:34.285Z,19.00
2022-10-19T04:21:38.699Z,22.50
2022-10-19T04:26:44.409Z,26.25
2022-10-19T04:31:49.855Z,21.73
2022-10-19T04:36:53.773Z,25.27
2022-10-19T04:41:56.539Z,26.90
2022-10-19T04:46:59.279Z,24.65
2022-10-19T04:52:01.971Z,22.02
2022-10-19T04:57:04.938Z,21.47
2022-10-19T05:02:07.859Z,25.88
2022-10-19T05:07:10.581Z,25.03
2022-10-19T05:12:13.298Z,26.10
2022-10-19T05:17:16.274Z,25.80
2022-10-19T05:22:19.402Z,19.17
2022-10-19T05:27:22.634Z,25.85
2022-10-19T05:32:25.719Z,23.50
2022-10-19T05:37:28.513Z,18.02
2022-10-19T05:42:31.304Z,20.75
2022-10-19T05:47:35.517Z,19.90
2022-10-19T05:52:38.953Z,17.55
2022-10-19T05:57:41.816Z,21.47
2022-10-19T06:02:45.002Z,18.90
2022-10-19T06:07:47.773Z,18.08
2022-10-19T06:12:50.583Z,20.70
2022-10-19T06:17:53.663Z,16.17
2022-10-19T06:22:56.482Z,16.67
2022-10-19T06:28:00.112Z,15.07
2022-10-19T06:38:06.480Z,17.90
2022-10-19T06:43:09.443Z,16.65
2022-10-19T06:48:12.159Z,18.50
2022-10-19T06:53:15.011Z,15.20
2022-10-19T06:58:17.842Z,17.73
2022-10-19T07:03:20.709Z,18.97
2022-10-19T07:08:25.035Z,22.35
2022-10-19T07:13:29.450Z,23.23
2022-10-19T07:18:33.242Z,21.50
2022-10-19T07:23:37.774Z,20.40
2022-10-19T07:28:42.430Z,15.13
2022-10-19T07:33:45.596Z,18.10
2022-10-19T07:38:48.614Z,17.07
2022-10-19T07:43:52.253Z,15.50
2022-10-19T07:48:55.466Z,21.98
2022-10-19T07:53:59.297Z,24.17
2022-10-19T07:59:03.121Z,24.98
2022-10-19T08:14:53.445Z,22.58
2022-10-19T08:19:56.336Z,22.03
2022-10-19T08:24:59.138Z,23.10
2022-10-19T08:30:02.182Z,21.00
2022-10-19T08:35:09.931Z,20.67
2022-10-19T08:40:21.313Z,13.55
2022-10-19T08:45:38.728Z,18.20
2022-10-19T08:50:45.009Z,18.15
2022-10-19T08:56:38.818Z,14.10
2022-10-19T09:01:49.889Z,13.95
2022-10-19T09:07:10.879Z,15.93
2022-10-19T09:12:16.987Z,12.27
2022-10-19T09:17:20.911Z,15.60
2022-10-19T09:22:32.859Z,9.80
2022-10-19T09:27:40.221Z,16.20
2022-10-19T09:32:43.448Z,8.13
2022-10-19T09:37:49.370Z,12.43
2022-10-19T09:42:57.391Z,12.32
2022-10-19T09:48:08.640Z,9.27
2022-10-19T09:53:21.047Z,12.00
2022-10-19T09:58:29.201Z,12.68
2022-10-19T10:03:40.737Z,9.20
2022-10-19T10:08:58.113Z,9.20
2022-10-19T10:14:26.218Z,9.23
2022-10-19T10:19:32.079Z,9.18
2022-10-19T10:24:35.122Z,15.30
2022-10-19T10:29:39.664Z,10.83
2022-10-19T10:35:01.971Z,10.32
2022-10-19T10:40:06.899Z,11.33
2022-10-19T10:45:38.430Z,8.68
2022-10-19T10:50:41.318Z,8.73
2022-10-19T10:55:56.412Z,11.80
2022-10-19T11:01:06.562Z,12.60
2022-10-19T11:06:11.993Z,10.77
2022-10-19T11:11:15.382Z,10.18
2022-10-19T11:16:31.749Z,7.35
2022-10-19T11:21:58.098Z,4.47
2022-10-19T11:27:18.325Z,7.68
2022-10-19T11:32:32.390Z,2.57
2022-10-19T11:38:18.903Z,4.32
2022-10-19T11:43:30.890Z,4.70
2022-10-19T11:48:57.913Z,6.07
2022-10-19T11:54:00.718Z,6.65
2022-10-19T11:59:33.278Z,4.20
2022-10-19T12:04:54.902Z,5.97
2022-10-19T12:10:18.213Z,6.13
2022-10-19T12:15:35.395Z,4.73
2022-10-19T12:20:48.476Z,4.57
2022-10-19T12:25:52.413Z,3.80
2022-10-19T12:30:57.048Z,5.57
2022-10-19T12:36:37.154Z,4.38
2022-10-19T12:41:52.766Z,3.40
2022-10-19T12:47:01.551Z,3.58
2022-10-19T12:52:05.535Z,4.97
2022-10-19T12:57:40.715Z,5.80
2022-10-19T13:02:44.237Z,5.43
2022-10-19T13:12:55.170Z,6.35
2022-10-19T13:17:57.977Z,6.97
2022-10-19T13:23:00.758Z,6.30
2022-10-19T13:28:18.179Z,5.63
2022-10-19T13:33:30.109Z,7.13
2022-10-19T13:38:39.800Z,4.55
2022-10-19T13:44:17.331Z,7.13
2022-10-19T13:49:51.133Z,6.90
2022-10-19T13:55:31.844Z,6.95
2022-10-19T14:00:58.407Z,8.10
2022-10-19T14:06:05.676Z,9.10
2022-10-19T14:11:19.434Z,6.73
2022-10-19T14:16:22.989Z,8.73
2022-10-19T14:21:34.296Z,6.95
2022-10-19T14:26:37.084Z,8.80
2022-10-19T14:31:40.332Z,8.18
2022-10-19T14:36:49.030Z,11.17
2022-10-19T14:41:55.641Z,7.60
2022-10-19T14:47:02.252Z,10.10
2022-10-19T14:52:05.366Z,7.17
2022-10-19T14:57:35.205Z,8.10
2022-10-19T15:02:45.493Z,7.67
2022-10-19T15:07:49.143Z,6.97
2022-10-19T15:12:57.936Z,6.47
2022-10-19T15:18:00.861Z,7.13
2022-10-19T15:23:32.938Z,5.68
2022-10-19T15:28:41.392Z,6.53
2022-10-19T15:33:51.469Z,6.18
2022-10-19T15:39:18.097Z,9.90
2022-10-19T15:44:42.414Z,5.40
2022-10-19T15:49:46.004Z,8.55
2022-10-19T15:54:50.373Z,11.30
2022-10-19T15:59:54.399Z,9.63
2022-10-19T16:04:57.279Z,8.20
2022-10-19T16:10:00.488Z,11.13
2022-10-19T16:15:03.592Z,8.05
2022-10-19T16:20:07.390Z,11.53
2022-10-19T16:25:11.029Z,9.52
2022-10-19T16:30:14.523Z,8.65
2022-10-19T16:35:17.388Z,9.03
2022-10-19T16:40:20.560Z,10.52
2022-10-19T16:45:23.245Z,8.37
2022-10-19T16:50:26.011Z,12.65
2022-10-19T16:55:29.531Z,10.05
2022-10-19T17:00:32.799Z,8.63
2022-10-19T17:05:39.048Z,12.88
2022-10-19T17:10:41.838Z,9.70
2022-10-19T17:15:44.789Z,11.80
2022-10-19T17:20:47.619Z,11.65
2022-10-19T17:25:50.686Z,11.00
2022-10-19T17:30:54.018Z,8.38
2022-10-19T17:36:02.440Z,7.87
2022-10-19T17:41:11.531Z,6.90
2022-10-19T17:46:17.338Z,7.75
2022-10-19T17:51:24.232Z,8.90
2022-10-19T17:56:27.968Z,9.07
2022-10-19T18:01:31.252Z,12.23
2022-10-19T18:06:36.540Z,13.52
2022-10-19T18:11:45.386Z,12.55
2022-10-19T18:16:48.293Z,9.03
2022-10-19T18:21:51.043Z,10.43
2022-10-19T18:26:54.323Z,11.10
2022-10-19T18:31:57.129Z,9.55
2022-10-19T18:37:00.130Z,9.52
2022-10-19T18:42:02.975Z,11.17
2022-10-19T18:47:05.873Z,10.80
2022-10-19T18:52:08.696Z,14.00
2022-10-19T18:57:11.737Z,9.57
2022-10-19T19:02:22.236Z,11.35
2022-10-19T19:07:25.728Z,15.93
2022-10-19T19:12:28.604Z,17.17
2022-10-19T19:17:31.382Z,18.37
2022-10-19T19:22:34.544Z,15.50
2022-10-19T19:32:41.560Z,14.13
2022-10-19T19:37:44.597Z,14.75
2022-10-19T19:42:47.367Z,13.27
2022-10-19T19:47:50.193Z,13.88
2022-10-19T19:52:53.342Z,11.98
2022-10-19T19:57:56.378Z,14.43
2022-10-19T20:02:59.912Z,12.35
2022-10-19T20:08:02.943Z,14.13
2022-10-19T20:13:06.027Z,15.05
2022-10-19T20:18:08.852Z,12.73
2022-10-19T20:23:11.611Z,15.70
2022-10-19T20:28:14.542Z,12.43
2022-10-19T20:33:17.352Z,12.37
2022-10-19T20:38:20.183Z,16.38
2022-10-19T20:43:23.469Z,16.65
2022-10-19T20:48:26.303Z,17.33
2022-10-19T20:53:29.283Z,18.23
2022-10-19T20:58:32.244Z,17.00
2022-10-19T21:03:35.463Z,15.95
2022-10-19T21:08:38.388Z,16.20
2022-10-19T21:13:41.503Z,16.97
2022-10-19T21:18:46.422Z,18.25
2022-10-19T21:23:51.814Z,17.77
2022-10-19T21:28:55.181Z,17.77
2022-10-19T21:33:58.191Z,17.20
2022-10-19T21:39:01.342Z,17.03
2022-10-19T21:44:04.283Z,17.77
2022-10-19T21:49:07.043Z,21.57
2022-10-19T21:54:13.915Z,18.60
2022-10-19T21:59:17.466Z,24.23
2022-10-19T22:04:20.303Z,17.37
2022-10-19T22:09:23.571Z,21.67
2022-10-19T22:14:27.626Z,21.63
2022-10-19T22:19:30.713Z,18.90
2022-10-19T22:24:35.036Z,17.70
2022-10-19T22:29:37.899Z,19.87
2022-10-19T22:34:40.816Z,18.73
2022-10-19T22:39:43.617Z,19.23
2022-10-19T22:44:46.382Z,22.10
2022-10-19T22:49:49.296Z,17.23
2022-10-19T22:54:52.051Z,18.27
2022-10-19T22:59:54.775Z,17.83
2022-10-19T23:04:57.514Z,22.17
2022-10-19T23:10:00.217Z,18.40
2022-10-19T23:15:02.887Z,14.40
2022-10-19T23:20:06.228Z,16.23
2022-10-19T23:25:09.686Z,19.75
2022-10-19T23:30:12.406Z,27.07
2022-10-19T23:35:15.109Z,23.38
2022-10-19T23:40:17.767Z,17.58
2022-10-19T23:45:20.497Z,18.53
2022-10-19T23:50:23.229Z,16.45
2022-10-19T23:55:25.906Z,19.67
